sensor_id;sensor_type;location;lat;lon;timestamp;pressure;altitude;pressure_sealevel;temperature;humidity
42415;BME280;28058;46.344;17.786;2023-04-06T00:01:27;118336.50;;;-144.97;89.71
42415;BME280;28058;46.344;17.786;2023-04-06T00:04:12;118336.50;;;-144.97;88.96
42415;BME280;28058;46.344;17.786;2023-04-06T00:06:38;118336.50;;;-144.97;87.90
42415;BME280;28058;46.344;17.786;2023-04-06T00:09:22;118336.50;;;-144.97;88.77
42415;BME280;28058;46.344;17.786;2023-04-06T00:11:49;118336.50;;;-144.97;88.59
42415;BME280;28058;46.344;17.786;2023-04-06T00:14:33;118336.50;;;-144.97;88.52
42415;BME280;28058;46.344;17.786;2023-04-06T00:17:17;118336.50;;;-144.97;88.20
42415;BME280;28058;46.344;17.786;2023-04-06T00:23:05;118336.50;;;-144.97;88.81
42415;BME280;28058;46.344;17.786;2023-04-06T00:25:32;118336.50;;;-144.97;89.52
42415;BME280;28058;46.344;17.786;2023-04-06T00:28:16;118336.50;;;-144.97;89.75
42415;BME280;28058;46.344;17.786;2023-04-06T00:31:00;118336.50;;;-144.97;89.40
42415;BME280;28058;46.344;17.786;2023-04-06T00:33:27;118336.50;;;-144.97;88.91
42415;BME280;28058;46.344;17.786;2023-04-06T00:36:16;118336.50;;;-144.97;89.03
42415;BME280;28058;46.344;17.786;2023-04-06T00:38:43;118336.50;;;-144.97;88.91
42415;BME280;28058;46.344;17.786;2023-04-06T00:41:10;118336.50;;;-144.97;88.83
42415;BME280;28058;46.344;17.786;2023-04-06T00:43:54;118336.50;;;-144.97;89.22
42415;BME280;28058;46.344;17.786;2023-04-06T00:46:39;118336.50;;;-144.97;89.47
42415;BME280;28058;46.344;17.786;2023-04-06T00:49:24;118336.50;;;-144.97;90.63
42415;BME280;28058;46.344;17.786;2023-04-06T00:51:50;118336.50;;;-144.97;91.67
42415;BME280;28058;46.344;17.786;2023-04-06T00:54:53;118336.50;;;-144.97;92.08
42415;BME280;28058;46.344;17.786;2023-04-06T00:57:57;118336.50;;;-144.97;93.26
42415;BME280;28058;46.344;17.786;2023-04-06T01:00:42;118336.50;;;-144.97;93.87
42415;BME280;28058;46.344;17.786;2023-04-06T01:03:09;118336.50;;;-144.97;94.54
42415;BME280;28058;46.344;17.786;2023-04-06T01:08:40;118336.50;;;-144.97;95.15
42415;BME280;28058;46.344;17.786;2023-04-06T01:11:07;118336.50;;;-144.97;94.68
42415;BME280;28058;46.344;17.786;2023-04-06T01:13:52;118336.50;;;-144.97;96.17
42415;BME280;28058;46.344;17.786;2023-04-06T01:16:57;118336.50;;;-144.97;96.75
42415;BME280;28058;46.344;17.786;2023-04-06T01:19:41;118336.50;;;-144.97;96.46
42415;BME280;28058;46.344;17.786;2023-04-06T01:22:26;118336.50;;;-144.97;96.28
42415;BME280;28058;46.344;17.786;2023-04-06T01:24:53;118336.50;;;-144.97;96.91
42415;BME280;28058;46.344;17.786;2023-04-06T01:27:20;118336.50;;;-144.97;95.94
42415;BME280;28058;46.344;17.786;2023-04-06T01:29:47;118336.50;;;-144.97;96.39
42415;BME280;28058;46.344;17.786;2023-04-06T01:32:49;118336.50;;;-144.97;97.29
42415;BME280;28058;46.344;17.786;2023-04-06T01:35:17;118336.50;;;-144.97;99.62
42415;BME280;28058;46.344;17.786;2023-04-06T01:40:48;118336.50;;;-144.97;99.37
42415;BME280;28058;46.344;17.786;2023-04-06T01:43:38;118336.50;;;-144.97;99.55
42415;BME280;28058;46.344;17.786;2023-04-06T01:46:23;118336.50;;;-144.97;100.00
42415;BME280;28058;46.344;17.786;2023-04-06T01:48:49;118336.50;;;-144.97;100.00
42415;BME280;28058;46.344;17.786;2023-04-06T01:51:16;118336.50;;;-144.97;100.00
42415;BME280;28058;46.344;17.786;2023-04-06T01:54:19;118336.50;;;-144.97;100.00
42415;BME280;28058;46.344;17.786;2023-04-06T01:57:02;118336.50;;;-144.97;100.00
42415;BME280;28058;46.344;17.786;2023-04-06T01:59:29;118336.50;;;-144.97;100.00
42415;BME280;28058;46.344;17.786;2023-04-06T02:01:56;118336.50;;;-144.97;100.00
42415;BME280;28058;46.344;17.786;2023-04-06T02:04:23;118336.50;;;-144.97;100.00
42415;BME280;28058;46.344;17.786;2023-04-06T02:07:08;118336.50;;;-144.97;100.00
42415;BME280;28058;46.344;17.786;2023-04-06T02:13:14;118336.50;;;-144.97;100.00
42415;BME280;28058;46.344;17.786;2023-04-06T02:16:17;118336.50;;;-144.97;100.00
42415;BME280;28058;46.344;17.786;2023-04-06T02:18:44;118336.50;;;-144.97;100.00
42415;BME280;28058;46.344;17.786;2023-04-06T02:21:11;118336.50;;;-144.97;100.00
42415;BME280;28058;46.344;17.786;2023-04-06T02:23:40;118336.50;;;-144.97;100.00
42415;BME280;28058;46.344;17.786;2023-04-06T02:26:24;118336.50;;;-144.97;100.00
42415;BME280;28058;46.344;17.786;2023-04-06T02:29:18;118336.50;;;-144.97;100.00
42415;BME280;28058;46.344;17.786;2023-04-06T02:31:44;118336.50;;;-144.97;100.00
42415;BME280;28058;46.344;17.786;2023-04-06T02:34:28;118336.50;;;-144.97;100.00
42415;BME280;28058;46.344;17.786;2023-04-06T02:37:31;118336.50;;;-144.97;100.00
42415;BME280;28058;46.344;17.786;2023-04-06T02:40:02;118336.50;;;-144.97;100.00
42415;BME280;28058;46.344;17.786;2023-04-06T02:48:54;118336.50;;;-144.97;100.00
42415;BME280;28058;46.344;17.786;2023-04-06T02:51:38;118336.50;;;-144.97;100.00
42415;BME280;28058;46.344;17.786;2023-04-06T02:54:24;118336.50;;;-144.97;100.00
42415;BME280;28058;46.344;17.786;2023-04-06T02:56:50;118336.50;;;-144.97;100.00
42415;BME280;28058;46.344;17.786;2023-04-06T02:59:35;118336.50;;;-144.97;100.00
42415;BME280;28058;46.344;17.786;2023-04-06T03:02:21;118336.50;;;-144.97;100.00
42415;BME280;28058;46.344;17.786;2023-04-06T03:05:24;118336.50;;;-144.97;100.00
42415;BME280;28058;46.344;17.786;2023-04-06T03:11:00;118336.50;;;-144.97;100.00
42415;BME280;28058;46.344;17.786;2023-04-06T03:14:03;118336.50;;;-144.97;100.00
42415;BME280;28058;46.344;17.786;2023-04-06T03:17:05;118336.50;;;-144.97;100.00
42415;BME280;28058;46.344;17.786;2023-04-06T03:19:49;118336.50;;;-144.97;100.00
42415;BME280;28058;46.344;17.786;2023-04-06T03:22:17;118336.50;;;-144.97;100.00
42415;BME280;28058;46.344;17.786;2023-04-06T03:25:19;118336.50;;;-144.97;100.00
42415;BME280;28058;46.344;17.786;2023-04-06T03:27:46;118336.50;;;-144.97;100.00
42415;BME280;28058;46.344;17.786;2023-04-06T03:30:30;118336.50;;;-144.97;100.00
42415;BME280;28058;46.344;17.786;2023-04-06T03:33:16;118336.50;;;-144.97;100.00
42415;BME280;28058;46.344;17.786;2023-04-06T03:36:00;118336.50;;;-144.97;100.00
42415;BME280;28058;46.344;17.786;2023-04-06T03:39:03;118336.50;;;-144.97;100.00
42415;BME280;28058;46.344;17.786;2023-04-06T03:41:48;118336.50;;;-144.97;100.00
42415;BME280;28058;46.344;17.786;2023-04-06T03:44:33;118336.50;;;-144.97;100.00
42415;BME280;28058;46.344;17.786;2023-04-06T03:47:36;118336.50;;;-144.97;100.00
42415;BME280;28058;46.344;17.786;2023-04-06T03:50:03;118336.50;;;-144.97;100.00
42415;BME280;28058;46.344;17.786;2023-04-06T03:52:48;118336.50;;;-144.97;100.00
42415;BME280;28058;46.344;17.786;2023-04-06T03:58:17;118336.50;;;-144.97;100.00
42415;BME280;28058;46.344;17.786;2023-04-06T04:01:01;118336.50;;;-144.97;100.00
42415;BME280;28058;46.344;17.786;2023-04-06T04:06:17;118336.50;;;-144.97;100.00
42415;BME280;28058;46.344;17.786;2023-04-06T04:09:02;118336.50;;;-144.97;100.00
42415;BME280;28058;46.344;17.786;2023-04-06T04:11:46;118336.50;;;-144.97;100.00
42415;BME280;28058;46.344;17.786;2023-04-06T04:14:32;118336.50;;;-144.97;100.00
42415;BME280;28058;46.344;17.786;2023-04-06T04:16:59;118336.50;;;-144.97;100.00
42415;BME280;28058;46.344;17.786;2023-04-06T04:19:25;118336.50;;;-144.97;100.00
42415;BME280;28058;46.344;17.786;2023-04-06T04:22:28;118336.50;;;-144.97;100.00
42415;BME280;28058;46.344;17.786;2023-04-06T04:25:31;118336.50;;;-144.97;100.00
42415;BME280;28058;46.344;17.786;2023-04-06T04:27:57;118336.50;;;-144.97;100.00
42415;BME280;28058;46.344;17.786;2023-04-06T04:31:00;118336.50;;;-144.97;100.00
42415;BME280;28058;46.344;17.786;2023-04-06T04:33:27;118336.50;;;-144.97;100.00
42415;BME280;28058;46.344;17.786;2023-04-06T04:35:53;118336.50;;;-144.97;100.00
42415;BME280;28058;46.344;17.786;2023-04-06T04:38:39;118336.50;;;-144.97;100.00
42415;BME280;28058;46.344;17.786;2023-04-06T04:41:41;118336.50;;;-144.97;100.00
42415;BME280;28058;46.344;17.786;2023-04-06T04:44:25;118336.50;;;-144.97;100.00
42415;BME280;28058;46.344;17.786;2023-04-06T04:46:52;118336.50;;;-144.97;100.00
42415;BME280;28058;46.344;17.786;2023-04-06T04:49:36;118336.50;;;-144.97;100.00
42415;BME280;28058;46.344;17.786;2023-04-06T04:52:39;118336.50;;;-144.97;100.00
42415;BME280;28058;46.344;17.786;2023-04-06T04:55:06;118336.50;;;-144.97;100.00
42415;BME280;28058;46.344;17.786;2023-04-06T04:57:53;118336.50;;;-144.97;100.00
42415;BME280;28058;46.344;17.786;2023-04-06T05:00:38;118336.50;;;-144.97;100.00
42415;BME280;28058;46.344;17.786;2023-04-06T05:03:24;118336.50;;;-144.97;100.00
42415;BME280;28058;46.344;17.786;2023-04-06T05:08:39;118336.50;;;-144.97;100.00
42415;BME280;28058;46.344;17.786;2023-04-06T05:11:05;118336.50;;;-144.97;100.00
42415;BME280;28058;46.344;17.786;2023-04-06T05:16:54;118336.50;;;-144.97;100.00
42415;BME280;28058;46.344;17.786;2023-04-06T05:19:39;118336.50;;;-144.97;100.00
42415;BME280;28058;46.344;17.786;2023-04-06T05:22:06;118336.50;;;-144.97;100.00
42415;BME280;28058;46.344;17.786;2023-04-06T05:25:09;118336.50;;;-144.97;100.00
42415;BME280;28058;46.344;17.786;2023-04-06T05:27:54;118336.50;;;-144.97;100.00
42415;BME280;28058;46.344;17.786;2023-04-06T05:30:57;118336.50;;;-144.97;100.00
42415;BME280;28058;46.344;17.786;2023-04-06T05:33:41;118336.50;;;-144.97;100.00
42415;BME280;28058;46.344;17.786;2023-04-06T05:36:07;118336.50;;;-144.97;100.00
42415;BME280;28058;46.344;17.786;2023-04-06T05:42:13;118336.50;;;-144.97;100.00
42415;BME280;28058;46.344;17.786;2023-04-06T05:45:18;118336.50;;;-144.97;100.00
42415;BME280;28058;46.344;17.786;2023-04-06T05:50:49;118336.50;;;-144.97;100.00
42415;BME280;28058;46.344;17.786;2023-04-06T05:53:16;118336.50;;;-144.97;100.00
42415;BME280;28058;46.344;17.786;2023-04-06T05:56:01;118336.50;;;-144.97;100.00
42415;BME280;28058;46.344;17.786;2023-04-06T05:58:28;118336.50;;;-144.97;100.00
42415;BME280;28058;46.344;17.786;2023-04-06T06:00:58;118336.50;;;-144.97;100.00
42415;BME280;28058;46.344;17.786;2023-04-06T06:03:25;118336.50;;;-144.97;100.00
42415;BME280;28058;46.344;17.786;2023-04-06T06:05:51;118336.50;;;-144.97;100.00
42415;BME280;28058;46.344;17.786;2023-04-06T06:08:18;118336.50;;;-144.97;100.00
42415;BME280;28058;46.344;17.786;2023-04-06T06:10:45;118336.50;;;-144.97;100.00
42415;BME280;28058;46.344;17.786;2023-04-06T06:13:11;118336.50;;;-144.97;100.00
42415;BME280;28058;46.344;17.786;2023-04-06T06:15:38;118336.50;;;-144.97;100.00
42415;BME280;28058;46.344;17.786;2023-04-06T06:18:05;118336.50;;;-144.97;100.00
42415;BME280;28058;46.344;17.786;2023-04-06T06:20:32;118336.50;;;-144.97;100.00
42415;BME280;28058;46.344;17.786;2023-04-06T06:22:59;118336.50;;;-144.97;100.00
42415;BME280;28058;46.344;17.786;2023-04-06T06:25:25;118336.50;;;-144.97;100.00
42415;BME280;28058;46.344;17.786;2023-04-06T06:27:52;118336.50;;;-144.97;100.00
42415;BME280;28058;46.344;17.786;2023-04-06T06:30:19;118336.50;;;-144.97;100.00
42415;BME280;28058;46.344;17.786;2023-04-06T06:32:49;118336.50;;;-144.97;96.88
42415;BME280;28058;46.344;17.786;2023-04-06T06:35:16;118336.50;;;-144.97;72.22
42415;BME280;28058;46.344;17.786;2023-04-06T06:37:43;118336.50;;;-144.97;55.68
42415;BME280;28058;46.344;17.786;2023-04-06T06:40:10;118336.50;;;-144.97;47.56
42415;BME280;28058;46.344;17.786;2023-04-06T06:42:39;118336.50;;;-144.97;45.18
42415;BME280;28058;46.344;17.786;2023-04-06T06:45:06;118336.50;;;-144.97;43.37
42415;BME280;28058;46.344;17.786;2023-04-06T06:47:33;118336.50;;;-144.97;42.95
42415;BME280;28058;46.344;17.786;2023-04-06T06:50:00;118336.50;;;-144.97;43.79
42415;BME280;28058;46.344;17.786;2023-04-06T06:52:27;118336.50;;;-144.97;43.26
42415;BME280;28058;46.344;17.786;2023-04-06T06:54:55;118336.50;;;-144.97;40.91
42415;BME280;28058;46.344;17.786;2023-04-06T06:57:23;118336.50;;;-144.97;39.45
42415;BME280;28058;46.344;17.786;2023-04-06T06:59:49;118336.50;;;-144.97;39.50
42415;BME280;28058;46.344;17.786;2023-04-06T07:02:16;118336.50;;;-144.97;39.53
42415;BME280;28058;46.344;17.786;2023-04-06T07:04:43;118336.50;;;-144.97;39.45
42415;BME280;28058;46.344;17.786;2023-04-06T07:07:09;118336.50;;;-144.97;38.14
42415;BME280;28058;46.344;17.786;2023-04-06T07:09:36;118336.50;;;-144.97;36.15
42415;BME280;28058;46.344;17.786;2023-04-06T07:12:03;118336.50;;;-144.97;35.53
42415;BME280;28058;46.344;17.786;2023-04-06T07:14:29;118336.50;;;-144.97;35.73
42415;BME280;28058;46.344;17.786;2023-04-06T07:16:56;118336.50;;;-144.97;35.42
42415;BME280;28058;46.344;17.786;2023-04-06T07:19:23;118336.50;;;-144.97;35.34
42415;BME280;28058;46.344;17.786;2023-04-06T07:21:50;118336.50;;;-144.97;34.02
42415;BME280;28058;46.344;17.786;2023-04-06T07:24:16;118336.50;;;-144.97;33.30
42415;BME280;28058;46.344;17.786;2023-04-06T07:26:43;118336.50;;;-144.97;32.32
42415;BME280;28058;46.344;17.786;2023-04-06T07:29:10;118336.50;;;-144.97;32.61
42415;BME280;28058;46.344;17.786;2023-04-06T07:31:37;118336.50;;;-144.97;32.08
42415;BME280;28058;46.344;17.786;2023-04-06T07:34:04;118336.50;;;-144.97;32.22
42415;BME280;28058;46.344;17.786;2023-04-06T07:36:31;118336.50;;;-144.97;32.13
42415;BME280;28058;46.344;17.786;2023-04-06T07:38:57;118336.50;;;-144.97;32.05
42415;BME280;28058;46.344;17.786;2023-04-06T07:41:24;118336.50;;;-144.97;32.41
42415;BME280;28058;46.344;17.786;2023-04-06T07:43:51;118336.50;;;-144.97;31.97
42415;BME280;28058;46.344;17.786;2023-04-06T07:46:17;118336.50;;;-144.97;31.30
42415;BME280;28058;46.344;17.786;2023-04-06T07:48:44;118336.50;;;-144.97;31.74
42415;BME280;28058;46.344;17.786;2023-04-06T07:51:11;118336.50;;;-144.97;31.08
42415;BME280;28058;46.344;17.786;2023-04-06T07:53:40;118336.50;;;-144.97;30.42
42415;BME280;28058;46.344;17.786;2023-04-06T07:56:07;118336.50;;;-144.97;31.09
42415;BME280;28058;46.344;17.786;2023-04-06T07:58:33;118336.50;;;-144.97;30.62
42415;BME280;28058;46.344;17.786;2023-04-06T08:01:01;118336.50;;;-144.97;31.40
42415;BME280;28058;46.344;17.786;2023-04-06T08:03:27;118336.50;;;-144.97;31.33
42415;BME280;28058;46.344;17.786;2023-04-06T08:05:54;118336.50;;;-144.97;30.75
42415;BME280;28058;46.344;17.786;2023-04-06T08:08:21;118336.50;;;-144.97;30.58
42415;BME280;28058;46.344;17.786;2023-04-06T08:10:58;118336.50;;;-144.97;30.51
42415;BME280;28058;46.344;17.786;2023-04-06T08:13:27;118336.50;;;-144.97;29.74
42415;BME280;28058;46.344;17.786;2023-04-06T08:15:54;118336.50;;;-144.97;29.88
42415;BME280;28058;46.344;17.786;2023-04-06T08:18:21;118336.50;;;-144.97;29.95
42415;BME280;28058;46.344;17.786;2023-04-06T08:20:47;118336.50;;;-144.97;29.49
42415;BME280;28058;46.344;17.786;2023-04-06T08:23:15;118336.50;;;-144.97;29.20
42415;BME280;28058;46.344;17.786;2023-04-06T08:25:42;118336.50;;;-144.97;29.59
42415;BME280;28058;46.344;17.786;2023-04-06T08:28:09;118336.50;;;-144.97;29.94
42415;BME280;28058;46.344;17.786;2023-04-06T08:30:36;118336.50;;;-144.97;30.45
42415;BME280;28058;46.344;17.786;2023-04-06T08:33:03;118336.50;;;-144.97;30.44
42415;BME280;28058;46.344;17.786;2023-04-06T08:35:30;118336.50;;;-144.97;30.59
42415;BME280;28058;46.344;17.786;2023-04-06T08:37:57;118336.50;;;-144.97;30.81
42415;BME280;28058;46.344;17.786;2023-04-06T08:40:24;118336.50;;;-144.97;30.67
42415;BME280;28058;46.344;17.786;2023-04-06T08:42:54;118336.50;;;-144.97;29.82
42415;BME280;28058;46.344;17.786;2023-04-06T08:45:21;118336.50;;;-144.97;29.78
42415;BME280;28058;46.344;17.786;2023-04-06T08:47:51;118336.50;;;-144.97;30.20
42415;BME280;28058;46.344;17.786;2023-04-06T08:50:22;118336.50;;;-144.97;30.47
42415;BME280;28058;46.344;17.786;2023-04-06T08:52:50;118336.50;;;-144.97;30.97
42415;BME280;28058;46.344;17.786;2023-04-06T08:55:17;118336.50;;;-144.97;31.15
42415;BME280;28058;46.344;17.786;2023-04-06T08:57:43;118336.50;;;-144.97;30.79
42415;BME280;28058;46.344;17.786;2023-04-06T09:00:12;118336.50;;;-144.97;30.62
42415;BME280;28058;46.344;17.786;2023-04-06T09:02:39;118336.50;;;-144.97;30.40
42415;BME280;28058;46.344;17.786;2023-04-06T09:05:09;118336.50;;;-144.97;30.92
42415;BME280;28058;46.344;17.786;2023-04-06T09:07:38;118336.50;;;-144.97;31.55
42415;BME280;28058;46.344;17.786;2023-04-06T09:10:05;118336.50;;;-144.97;30.98
42415;BME280;28058;46.344;17.786;2023-04-06T09:12:32;118336.50;;;-144.97;31.62
42415;BME280;28058;46.344;17.786;2023-04-06T09:15:00;118336.50;;;-144.97;31.58
42415;BME280;28058;46.344;17.786;2023-04-06T09:30:05;118336.50;;;-144.97;33.96
42415;BME280;28058;46.344;17.786;2023-04-06T09:32:32;118336.50;;;-144.97;34.18
42415;BME280;28058;46.344;17.786;2023-04-06T09:35:11;118336.50;;;-144.97;34.11
42415;BME280;28058;46.344;17.786;2023-04-06T09:37:41;118336.50;;;-144.97;34.35
42415;BME280;28058;46.344;17.786;2023-04-06T09:40:12;118336.50;;;-144.97;34.43
42415;BME280;28058;46.344;17.786;2023-04-06T09:42:44;118336.50;;;-144.97;35.03
42415;BME280;28058;46.344;17.786;2023-04-06T09:45:12;118336.50;;;-144.97;34.49
42415;BME280;28058;46.344;17.786;2023-04-06T09:47:39;118336.50;;;-144.97;34.61
42415;BME280;28058;46.344;17.786;2023-04-06T09:50:07;118336.50;;;-144.97;34.45
42415;BME280;28058;46.344;17.786;2023-04-06T09:52:38;118336.50;;;-144.97;34.92
42415;BME280;28058;46.344;17.786;2023-04-06T09:55:07;118336.50;;;-144.97;35.25
42415;BME280;28058;46.344;17.786;2023-04-06T09:57:42;118336.50;;;-144.97;35.33
42415;BME280;28058;46.344;17.786;2023-04-06T10:00:12;118336.50;;;-144.97;35.93
42415;BME280;28058;46.344;17.786;2023-04-06T10:02:45;118336.50;;;-144.97;36.90
42415;BME280;28058;46.344;17.786;2023-04-06T10:05:22;118336.50;;;-144.97;36.46
42415;BME280;28058;46.344;17.786;2023-04-06T10:07:54;118336.50;;;-144.97;35.70
42415;BME280;28058;46.344;17.786;2023-04-06T10:10:27;118336.50;;;-144.97;34.92
42415;BME280;28058;46.344;17.786;2023-04-06T10:12:53;118336.50;;;-144.97;33.91
42415;BME280;28058;46.344;17.786;2023-04-06T10:15:21;118336.50;;;-144.97;33.99
42415;BME280;28058;46.344;17.786;2023-04-06T10:17:48;118336.50;;;-144.97;33.93
42415;BME280;28058;46.344;17.786;2023-04-06T10:20:23;118336.50;;;-144.97;33.15
42415;BME280;28058;46.344;17.786;2023-04-06T10:22:55;118336.50;;;-144.97;33.11
42415;BME280;28058;46.344;17.786;2023-04-06T10:25:27;118336.50;;;-144.97;33.21
42415;BME280;28058;46.344;17.786;2023-04-06T10:28:06;118336.50;;;-144.97;33.57
42415;BME280;28058;46.344;17.786;2023-04-06T10:30:34;118336.50;;;-144.97;32.78
42415;BME280;28058;46.344;17.786;2023-04-06T10:33:01;118336.50;;;-144.97;32.90
42415;BME280;28058;46.344;17.786;2023-04-06T10:35:38;118336.50;;;-144.97;33.93
42415;BME280;28058;46.344;17.786;2023-04-06T10:38:05;118336.50;;;-144.97;33.83
42415;BME280;28058;46.344;17.786;2023-04-06T10:40:32;118336.50;;;-144.97;34.05
42415;BME280;28058;46.344;17.786;2023-04-06T10:43:08;118336.50;;;-144.97;34.14
42415;BME280;28058;46.344;17.786;2023-04-06T10:45:36;118336.50;;;-144.97;33.97
42415;BME280;28058;46.344;17.786;2023-04-06T10:48:13;118336.50;;;-144.97;33.69
42415;BME280;28058;46.344;17.786;2023-04-06T10:50:46;118336.50;;;-144.97;32.79
42415;BME280;28058;46.344;17.786;2023-04-06T10:53:20;118336.50;;;-144.97;32.27
42415;BME280;28058;46.344;17.786;2023-04-06T10:55:47;118336.50;;;-144.97;32.62
42415;BME280;28058;46.344;17.786;2023-04-06T10:58:15;118336.50;;;-144.97;32.95
42415;BME280;28058;46.344;17.786;2023-04-06T11:00:45;118336.50;;;-144.97;32.64
42415;BME280;28058;46.344;17.786;2023-04-06T11:03:16;118336.50;;;-144.97;33.18
42415;BME280;28058;46.344;17.786;2023-04-06T11:05:47;118336.50;;;-144.97;32.43
42415;BME280;28058;46.344;17.786;2023-04-06T11:08:24;118336.50;;;-144.97;31.97
42415;BME280;28058;46.344;17.786;2023-04-06T11:10:51;118336.50;;;-144.97;31.96
42415;BME280;28058;46.344;17.786;2023-04-06T11:13:17;118336.50;;;-144.97;32.15
42415;BME280;28058;46.344;17.786;2023-04-06T11:15:44;118336.50;;;-144.97;31.57
42415;BME280;28058;46.344;17.786;2023-04-06T11:18:11;118336.50;;;-144.97;31.93
42415;BME280;28058;46.344;17.786;2023-04-06T11:20:38;118336.50;;;-144.97;31.74
42415;BME280;28058;46.344;17.786;2023-04-06T11:23:04;118336.50;;;-144.97;32.16
42415;BME280;28058;46.344;17.786;2023-04-06T11:25:31;118336.50;;;-144.97;32.02
42415;BME280;28058;46.344;17.786;2023-04-06T11:27:59;118336.50;;;-144.97;32.22
42415;BME280;28058;46.344;17.786;2023-04-06T11:30:25;118336.50;;;-144.97;31.42
42415;BME280;28058;46.344;17.786;2023-04-06T11:32:59;118336.50;;;-144.97;31.47
42415;BME280;28058;46.344;17.786;2023-04-06T11:35:27;118336.50;;;-144.97;31.41
42415;BME280;28058;46.344;17.786;2023-04-06T11:37:57;118336.50;;;-144.97;31.39
42415;BME280;28058;46.344;17.786;2023-04-06T11:40:25;118336.50;;;-144.97;31.85
42415;BME280;28058;46.344;17.786;2023-04-06T11:42:55;118336.50;;;-144.97;30.65
42415;BME280;28058;46.344;17.786;2023-04-06T11:45:22;118336.50;;;-144.97;30.61
42415;BME280;28058;46.344;17.786;2023-04-06T11:47:56;118336.50;;;-144.97;30.64
42415;BME280;28058;46.344;17.786;2023-04-06T11:50:23;118336.50;;;-144.97;31.31
42415;BME280;28058;46.344;17.786;2023-04-06T11:52:59;118336.50;;;-144.97;30.94
42415;BME280;28058;46.344;17.786;2023-04-06T11:55:27;118336.50;;;-144.97;31.24
42415;BME280;28058;46.344;17.786;2023-04-06T11:57:54;118336.50;;;-144.97;31.54
42415;BME280;28058;46.344;17.786;2023-04-06T12:00:21;118336.50;;;-144.97;31.73
42415;BME280;28058;46.344;17.786;2023-04-06T12:02:48;118336.50;;;-144.97;31.54
42415;BME280;28058;46.344;17.786;2023-04-06T12:05:15;118336.50;;;-144.97;32.02
42415;BME280;28058;46.344;17.786;2023-04-06T12:07:42;118336.50;;;-144.97;31.70
42415;BME280;28058;46.344;17.786;2023-04-06T12:10:09;118336.50;;;-144.97;30.13
42415;BME280;28058;46.344;17.786;2023-04-06T12:12:36;118336.50;;;-144.97;30.37
42415;BME280;28058;46.344;17.786;2023-04-06T12:15:02;118336.50;;;-144.97;30.33
42415;BME280;28058;46.344;17.786;2023-04-06T12:17:29;118336.50;;;-144.97;31.00
42415;BME280;28058;46.344;17.786;2023-04-06T12:19:56;118336.50;;;-144.97;31.46
42415;BME280;28058;46.344;17.786;2023-04-06T12:22:34;118336.50;;;-144.97;31.68
42415;BME280;28058;46.344;17.786;2023-04-06T12:25:02;118336.50;;;-144.97;31.71
42415;BME280;28058;46.344;17.786;2023-04-06T12:27:29;118336.50;;;-144.97;31.81
42415;BME280;28058;46.344;17.786;2023-04-06T12:29:55;118336.50;;;-144.97;32.27
42415;BME280;28058;46.344;17.786;2023-04-06T12:32:22;118336.50;;;-144.97;32.40
42415;BME280;28058;46.344;17.786;2023-04-06T12:34:50;118336.50;;;-144.97;32.67
42415;BME280;28058;46.344;17.786;2023-04-06T12:37:17;118336.50;;;-144.97;32.95
42415;BME280;28058;46.344;17.786;2023-04-06T12:39:43;118336.50;;;-144.97;31.67
42415;BME280;28058;46.344;17.786;2023-04-06T12:42:11;118336.50;;;-144.97;32.02
42415;BME280;28058;46.344;17.786;2023-04-06T12:44:39;118336.50;;;-144.97;32.50
42415;BME280;28058;46.344;17.786;2023-04-06T12:47:05;118336.50;;;-144.97;32.96
42415;BME280;28058;46.344;17.786;2023-04-06T12:49:33;118336.50;;;-144.97;32.55
42415;BME280;28058;46.344;17.786;2023-04-06T12:52:01;118336.50;;;-144.97;32.68
42415;BME280;28058;46.344;17.786;2023-04-06T12:54:28;118336.50;;;-144.97;32.53
42415;BME280;28058;46.344;17.786;2023-04-06T12:56:54;118336.50;;;-144.97;32.55
42415;BME280;28058;46.344;17.786;2023-04-06T12:59:22;118336.50;;;-144.97;32.89
42415;BME280;28058;46.344;17.786;2023-04-06T13:01:51;118336.50;;;-144.97;32.87
42415;BME280;28058;46.344;17.786;2023-04-06T13:04:19;118336.50;;;-144.97;32.92
42415;BME280;28058;46.344;17.786;2023-04-06T13:06:45;118336.50;;;-144.97;33.12
42415;BME280;28058;46.344;17.786;2023-04-06T13:09:12;118336.50;;;-144.97;33.17
42415;BME280;28058;46.344;17.786;2023-04-06T13:11:39;118336.50;;;-144.97;33.25
42415;BME280;28058;46.344;17.786;2023-04-06T13:14:07;118336.50;;;-144.97;33.26
42415;BME280;28058;46.344;17.786;2023-04-06T13:16:34;118336.50;;;-144.97;32.99
42415;BME280;28058;46.344;17.786;2023-04-06T13:19:01;118336.50;;;-144.97;32.46
42415;BME280;28058;46.344;17.786;2023-04-06T13:21:28;118336.50;;;-144.97;32.26
42415;BME280;28058;46.344;17.786;2023-04-06T13:23:56;118336.50;;;-144.97;32.30
42415;BME280;28058;46.344;17.786;2023-04-06T13:26:23;118336.50;;;-144.97;32.64
42415;BME280;28058;46.344;17.786;2023-04-06T13:28:49;118336.50;;;-144.97;31.84
42415;BME280;28058;46.344;17.786;2023-04-06T13:31:16;118336.50;;;-144.97;31.97
42415;BME280;28058;46.344;17.786;2023-04-06T13:33:43;118336.50;;;-144.97;32.36
42415;BME280;28058;46.344;17.786;2023-04-06T13:36:09;118336.50;;;-144.97;32.75
42415;BME280;28058;46.344;17.786;2023-04-06T13:38:36;118336.50;;;-144.97;32.50
42415;BME280;28058;46.344;17.786;2023-04-06T13:41:05;118336.50;;;-144.97;32.64